createdAt,value
2022-09-01T00:00:53.881Z,89.80
2022-09-01T00:01:55.688Z,89.90
2022-09-01T00:02:57.894Z,90.00
2022-09-01T00:04:03.274Z,89.92
2022-09-01T00:05:07.493Z,89.85
2022-09-01T00:06:10.278Z,89.94
2022-09-01T00:07:14.736Z,90.17
2022-09-01T00:08:18.692Z,90.25
2022-09-01T00:09:23.370Z,90.35
2022-09-01T00:10:25.049Z,90.57
2022-09-01T00:11:29.181Z,90.64
2022-09-01T00:12:31.062Z,90.71
2022-09-01T00:13:33.979Z,90.87
2022-09-01T00:14:41.644Z,90.92
2022-09-01T00:15:44.090Z,91.03
2022-09-01T00:16:45.912Z,91.25
2022-09-01T00:17:51.844Z,91.44
2022-09-01T00:18:54.911Z,91.58
2022-09-01T00:19:56.622Z,91.63
2022-09-01T00:20:59.596Z,91.81
2022-09-01T00:22:02.545Z,91.95
2022-09-01T00:23:04.491Z,92.13
2022-09-01T00:24:06.809Z,92.05
2022-09-01T00:25:09.256Z,92.16
2022-09-01T00:26:11.798Z,92.19
2022-09-01T00:27:13.517Z,92.30
2022-09-01T00:28:15.238Z,92.17
2022-09-01T00:29:17.160Z,92.05
2022-09-01T00:30:19.821Z,91.94
2022-09-01T00:31:22.737Z,91.81
2022-09-01T00:32:25.343Z,91.92
2022-09-01T00:33:27.544Z,91.77
2022-09-01T00:34:29.190Z,91.85
2022-09-01T00:35:30.866Z,91.77
2022-09-01T00:36:38.517Z,91.83
2022-09-01T00:37:40.321Z,91.99
2022-09-01T00:38:43.155Z,92.15
2022-09-01T00:39:44.862Z,92.20
2022-09-01T00:40:47.039Z,92.06
2022-09-01T00:41:50.747Z,92.24
2022-09-01T00:42:53.778Z,92.37
2022-09-01T00:43:59.296Z,92.54
2022-09-01T00:45:00.935Z,92.53
2022-09-01T00:46:05.881Z,92.47
2022-09-01T00:47:10.882Z,92.71
2022-09-01T00:48:15.060Z,92.39
2022-09-01T00:49:38.757Z,92.09
2022-09-01T00:50:42.132Z,91.93
2022-09-01T00:51:49.125Z,92.01
2022-09-01T00:52:55.562Z,91.87
2022-09-01T00:54:00.136Z,91.87
2022-09-01T00:55:13.067Z,91.86
2022-09-01T00:56:15.820Z,91.94
2022-09-01T00:57:17.846Z,91.94
2022-09-01T00:58:21.230Z,91.94
2022-09-01T00:59:26.288Z,91.81
2022-09-01T01:00:31.019Z,91.76
2022-09-01T01:01:35.467Z,91.75
2022-09-01T01:02:39.000Z,91.87
2022-09-01T01:03:42.538Z,92.02
2022-09-01T01:04:44.304Z,92.08
2022-09-01T01:05:55.703Z,92.13
2022-09-01T01:07:02.273Z,92.36
2022-09-01T01:08:05.010Z,92.55
2022-09-01T01:09:06.805Z,92.52
2022-09-01T01:10:11.961Z,92.71
2022-09-01T01:11:18.752Z,92.90
2022-09-01T01:12:21.651Z,93.01
2022-09-01T01:13:25.991Z,92.99
2022-09-01T01:14:31.887Z,93.18
2022-09-01T01:15:33.847Z,93.29
2022-09-01T01:16:35.917Z,93.36
2022-09-01T01:17:38.325Z,93.38
2022-09-01T01:18:39.998Z,93.56
2022-09-01T01:20:13.883Z,93.54
2022-09-01T01:21:38.875Z,93.70
2022-09-01T01:23:05.687Z,93.81
2022-09-01T01:24:34.714Z,93.83
2022-09-01T01:25:44.675Z,93.84
2022-09-01T01:26:48.151Z,93.86
2022-09-01T01:27:50.935Z,93.67
2022-09-01T01:28:54.353Z,93.79
2022-09-01T01:29:57.665Z,93.88
2022-09-01T01:31:06.005Z,93.84
2022-09-01T01:32:13.112Z,93.80
2022-09-01T01:33:15.368Z,93.86
2022-09-01T01:34:18.458Z,93.99
2022-09-01T01:35:21.840Z,93.98
2022-09-01T01:36:32.617Z,93.88
2022-09-01T01:37:36.302Z,94.15
2022-09-01T01:38:38.452Z,94.11
2022-09-01T01:39:43.851Z,94.05
2022-09-01T01:40:45.836Z,94.14
2022-09-01T01:41:50.713Z,94.28
2022-09-01T01:42:54.313Z,94.36
2022-09-01T01:44:04.367Z,94.52
2022-09-01T01:45:08.146Z,94.71
2022-09-01T01:46:12.002Z,94.80
2022-09-01T01:47:14.290Z,94.84
2022-09-01T01:48:22.739Z,94.80
2022-09-01T01:49:29.225Z,94.89
2022-09-01T01:50:35.931Z,95.05
2022-09-01T01:51:38.101Z,95.08
2022-09-01T01:52:40.369Z,94.93
2022-09-01T01:53:52.638Z,94.83
2022-09-01T01:54:54.679Z,94.70
2022-09-01T01:55:58.414Z,94.81
2022-09-01T01:57:04.483Z,94.88
2022-09-01T01:58:09.836Z,94.97
2022-09-01T01:59:16.499Z,94.97
2022-09-01T02:00:27.093Z,95.01
2022-09-01T02:01:32.142Z,95.12
2022-09-01T02:02:34.187Z,95.05
2022-09-01T02:03:38.477Z,95.09
2022-09-01T02:04:41.626Z,95.13
2022-09-01T02:05:44.282Z,95.18
2022-09-01T02:06:48.265Z,95.33
2022-09-01T02:07:55.938Z,95.86
2022-09-01T02:09:03.727Z,95.61
2022-09-01T02:10:06.178Z,95.28
2022-09-01T02:11:08.886Z,95.06
2022-09-01T02:12:11.058Z,94.97
2022-09-01T02:13:20.876Z,94.99
2022-09-01T02:14:23.472Z,95.25
2022-09-01T02:15:25.533Z,95.51
2022-09-01T02:16:30.236Z,95.56
2022-09-01T02:17:32.052Z,95.65
2022-09-01T02:18:37.943Z,95.74
2022-09-01T02:19:43.265Z,95.95
2022-09-01T02:20:50.308Z,96.15
2022-09-01T02:21:56.051Z,96.14
2022-09-01T02:22:57.734Z,96.35
2022-09-01T02:24:03.626Z,96.30
2022-09-01T02:25:06.653Z,96.47
2022-09-01T02:26:16.685Z,96.50
2022-09-01T02:27:23.273Z,96.71
2022-09-01T02:28:28.505Z,96.78
2022-09-01T02:29:30.352Z,96.86
2022-09-01T02:30:37.775Z,97.01
2022-09-01T02:31:39.866Z,97.07
2022-09-01T02:32:41.856Z,97.07
2022-09-01T02:33:47.017Z,97.10
2022-09-01T02:34:53.578Z,97.17
2022-09-01T02:36:00.883Z,97.20
2022-09-01T02:37:03.270Z,97.27
2022-09-01T02:38:05.317Z,97.33
2022-09-01T02:39:08.137Z,97.39
2022-09-01T02:40:10.550Z,97.60
2022-09-01T02:41:14.288Z,97.47
2022-09-01T02:42:16.301Z,97.52
2022-09-01T02:43:20.349Z,97.81
2022-09-01T02:44:23.095Z,97.89
2022-09-01T02:45:24.848Z,97.55
2022-09-01T02:46:26.740Z,97.41
2022-09-01T02:47:28.553Z,97.34
2022-09-01T02:48:32.949Z,97.41
2022-09-01T02:49:36.026Z,97.46
2022-09-01T02:50:39.681Z,97.44
2022-09-01T02:51:47.238Z,97.63
2022-09-01T02:52:50.985Z,97.61
2022-09-01T02:53:53.424Z,97.71
2022-09-01T02:54:55.550Z,97.77
2022-09-01T02:55:59.494Z,97.83
2022-09-01T02:57:01.426Z,97.99
2022-09-01T02:58:04.330Z,98.07
2022-09-01T02:59:06.105Z,98.07
2022-09-01T03:00:20.750Z,98.18
2022-09-01T03:01:31.471Z,98.43
2022-09-01T03:02:35.896Z,98.39
2022-09-01T03:03:38.935Z,98.41
2022-09-01T03:04:41.181Z,98.45
2022-09-01T03:05:43.903Z,98.51
2022-09-01T03:06:46.826Z,98.70
2022-09-01T03:07:54.081Z,98.80
2022-09-01T03:09:00.159Z,98.80
2022-09-01T03:10:03.336Z,98.92
2022-09-01T03:11:13.289Z,99.10
2022-09-01T03:12:15.402Z,99.21
2022-09-01T03:13:21.875Z,99.21
2022-09-01T03:14:24.324Z,99.21
2022-09-01T03:15:27.394Z,99.30
2022-09-01T03:16:33.448Z,99.29
2022-09-01T03:17:35.333Z,99.45
2022-09-01T03:18:38.427Z,99.54
2022-09-01T03:19:44.290Z,99.43
2022-09-01T03:20:48.357Z,99.60
2022-09-01T03:21:50.137Z,99.68
2022-09-01T03:22:57.936Z,99.60
2022-09-01T03:24:02.002Z,99.71
2022-09-01T03:25:04.595Z,99.87
2022-09-01T03:26:06.284Z,99.94
2022-09-01T03:27:08.916Z,100.00
2022-09-01T03:28:13.066Z,99.99
2022-09-01T03:29:15.395Z,99.98
2022-09-01T03:30:17.526Z,100.00
2022-09-01T03:31:21.565Z,99.99
2022-09-01T03:32:24.650Z,99.99
2022-09-01T03:33:28.638Z,100.00
2022-09-01T03:34:34.377Z,100.00
2022-09-01T03:35:36.787Z,100.00
2022-09-01T03:36:39.829Z,100.00
2022-09-01T03:37:44.326Z,100.00
2022-09-01T03:38:51.376Z,100.00
2022-09-01T03:39:56.427Z,100.00
2022-09-01T03:41:04.440Z,100.00
2022-09-01T03:42:09.032Z,100.00
2022-09-01T03:43:11.977Z,100.00
2022-09-01T03:44:16.214Z,100.00
2022-09-01T03:45:20.392Z,100.00
2022-09-01T03:46:24.323Z,100.00
2022-09-01T03:47:27.283Z,100.00
2022-09-01T03:48:32.210Z,100.00
2022-09-01T03:49:34.066Z,100.00
2022-09-01T03:50:47.357Z,100.00
2022-09-01T03:51:49.260Z,100.00
2022-09-01T03:52:58.695Z,100.00
2022-09-01T03:54:00.736Z,100.00
2022-09-01T03:55:02.471Z,100.00
2022-09-01T03:56:05.477Z,100.00
2022-09-01T03:57:09.944Z,100.00
2022-09-01T03:58:18.953Z,100.00
2022-09-01T03:59:22.617Z,100.00
2022-09-01T04:00:29.797Z,100.00
2022-09-01T04:01:37.893Z,100.00
2022-09-01T04:02:40.017Z,100.00
2022-09-01T04:03:42.664Z,100.00
2022-09-01T04:04:44.376Z,100.00
2022-09-01T04:05:46.197Z,100.00
2022-09-01T04:06:48.058Z,100.00
2022-09-01T04:07:50.310Z,100.00
2022-09-01T04:08:57.768Z,100.00
2022-09-01T04:09:59.484Z,100.00
2022-09-01T04:11:10.612Z,100.00
2022-09-01T04:12:15.724Z,100.00
2022-09-01T04:13:32.277Z,100.00
2022-09-01T04:14:34.942Z,100.00
2022-09-01T04:15:38.489Z,100.00
2022-09-01T04:16:59.201Z,100.00
2022-09-01T04:18:10.582Z,100.00
2022-09-01T04:19:25.590Z,100.00
2022-09-01T04:20:28.587Z,100.00
2022-09-01T04:21:31.951Z,100.00
2022-09-01T04:22:35.414Z,100.00
2022-09-01T04:23:37.286Z,100.00
2022-09-01T04:24:45.419Z,100.00
2022-09-01T04:25:50.377Z,100.00
2022-09-01T04:26:54.534Z,100.00
2022-09-01T04:27:57.091Z,100.00
2022-09-01T04:28:59.180Z,100.00
2022-09-01T04:30:01.466Z,100.00
2022-09-01T04:31:09.197Z,100.00
2022-09-01T04:32:13.100Z,100.00
2022-09-01T04:33:18.547Z,100.00
2022-09-01T04:34:22.705Z,100.00
2022-09-01T04:35:32.964Z,100.00
2022-09-01T04:36:43.543Z,100.00
2022-09-01T04:37:46.173Z,100.00
2022-09-01T04:38:54.491Z,100.00
2022-09-01T04:39:57.668Z,100.00
2022-09-01T04:41:06.515Z,100.00
2022-09-01T04:42:09.246Z,100.00
2022-09-01T04:43:11.336Z,100.00
2022-09-01T04:44:19.195Z,100.00
2022-09-01T04:45:24.900Z,100.00
2022-09-01T04:46:31.347Z,100.00
2022-09-01T04:47:36.253Z,100.00
2022-09-01T04:48:46.000Z,100.00
2022-09-01T04:49:49.192Z,100.00
2022-09-01T04:50:52.054Z,100.00
2022-09-01T04:52:00.653Z,100.00
2022-09-01T04:53:06.125Z,100.00
2022-09-01T04:54:14.287Z,100.00
2022-09-01T04:55:17.852Z,100.00
2022-09-01T04:56:22.943Z,100.00
2022-09-01T04:57:50.058Z,100.00
2022-09-01T04:58:56.475Z,100.00
2022-09-01T04:59:58.521Z,100.00
2022-09-01T05:01:06.332Z,100.00
2022-09-01T05:02:09.525Z,100.00
2022-09-01T05:03:11.542Z,100.00
2022-09-01T05:04:34.302Z,100.00
2022-09-01T05:05:45.143Z,100.00
2022-09-01T05:06:50.021Z,100.00
2022-09-01T05:07:55.308Z,100.00
2022-09-01T05:08:57.909Z,100.00
2022-09-01T05:10:19.917Z,100.00
2022-09-01T05:12:15.729Z,100.00
2022-09-01T05:13:23.495Z,100.00
2022-09-01T05:14:26.032Z,100.00
2022-09-01T05:15:29.699Z,99.86
2022-09-01T05:16:32.445Z,99.74
2022-09-01T05:17:38.556Z,99.74
2022-09-01T05:18:47.481Z,99.63
2022-09-01T05:19:50.576Z,99.73
2022-09-01T05:20:53.263Z,99.47
2022-09-01T05:21:58.321Z,98.92
2022-09-01T05:23:00.518Z,98.69
2022-09-01T05:24:05.025Z,98.40
2022-09-01T05:25:13.291Z,98.48
2022-09-01T05:26:22.190Z,98.29
2022-09-01T05:27:24.284Z,98.15
2022-09-01T05:28:27.071Z,97.91
2022-09-01T05:29:29.651Z,97.90
2022-09-01T05:30:36.844Z,97.86
2022-09-01T05:31:41.289Z,97.82
2022-09-01T05:32:43.622Z,97.55
2022-09-01T05:33:48.289Z,97.12
2022-09-01T05:34:51.826Z,96.74
2022-09-01T05:36:01.169Z,96.63
2022-09-01T05:37:06.414Z,96.40
2022-09-01T05:38:11.002Z,96.35
2022-09-01T05:39:12.937Z,96.16
2022-09-01T05:40:16.346Z,95.65
2022-09-01T05:41:21.041Z,95.85
2022-09-01T05:42:22.988Z,95.97
2022-09-01T05:43:27.802Z,95.55
2022-09-01T05:44:29.677Z,95.19
2022-09-01T05:45:44.916Z,94.98
2022-09-01T05:46:55.808Z,94.71
2022-09-01T05:47:59.714Z,94.38
2022-09-01T05:49:02.616Z,94.27
2022-09-01T05:50:11.016Z,94.31
2022-09-01T05:51:42.660Z,94.16
2022-09-01T05:52:44.835Z,93.11
2022-09-01T05:53:51.349Z,92.99
2022-09-01T05:54:55.454Z,92.18
2022-09-01T05:55:57.457Z,92.44
2022-09-01T05:57:17.530Z,92.82
2022-09-01T05:58:21.505Z,93.07
2022-09-01T05:59:24.868Z,93.25
2022-09-01T06:00:34.712Z,92.59
2022-09-01T06:01:41.157Z,91.67
2022-09-01T06:02:43.400Z,90.91
2022-09-01T06:03:55.653Z,90.96
2022-09-01T06:05:00.271Z,90.77
2022-09-01T06:06:09.249Z,90.86
2022-09-01T06:07:16.639Z,90.33
2022-09-01T06:08:28.951Z,89.81
2022-09-01T06:09:30.779Z,90.35
2022-09-01T06:10:35.504Z,90.80
2022-09-01T06:11:38.065Z,90.10
2022-09-01T06:12:40.739Z,89.32
2022-09-01T06:13:42.625Z,89.18
2022-09-01T06:14:46.185Z,88.63
2022-09-01T06:15:51.026Z,88.15
2022-09-01T06:16:54.197Z,88.04
2022-09-01T06:17:57.408Z,88.18
2022-09-01T06:18:59.549Z,88.77
2022-09-01T06:20:01.991Z,88.75
2022-09-01T06:21:08.356Z,87.84
2022-09-01T06:22:11.237Z,87.55
2022-09-01T06:23:15.275Z,87.72
2022-09-01T06:24:18.103Z,87.97
2022-09-01T06:25:21.322Z,88.08
2022-09-01T06:26:27.646Z,88.64
2022-09-01T06:27:30.082Z,87.64
2022-09-01T06:28:31.893Z,86.90
2022-09-01T06:29:34.186Z,86.46
2022-09-01T06:30:36.497Z,86.39
2022-09-01T06:31:43.363Z,86.60
2022-09-01T06:32:45.549Z,86.27
2022-09-01T06:33:48.344Z,86.04
2022-09-01T06:34:51.252Z,85.62
2022-09-01T06:35:53.998Z,85.55
2022-09-01T06:36:56.319Z,85.80
2022-09-01T06:38:02.140Z,86.03
2022-09-01T06:39:26.512Z,84.85
2022-09-01T06:40:29.085Z,84.48
2022-09-01T06:41:31.531Z,84.11
2022-09-01T06:42:35.267Z,84.32
2022-09-01T06:43:37.127Z,84.89
2022-09-01T06:44:41.984Z,84.69
2022-09-01T06:45:54.194Z,84.66
2022-09-01T06:46:57.194Z,84.48
2022-09-01T06:48:01.285Z,83.78
2022-09-01T06:49:03.941Z,82.41
2022-09-01T06:50:08.573Z,82.23
2022-09-01T06:51:16.117Z,82.86
2022-09-01T06:52:21.235Z,82.67
2022-09-01T06:54:46.105Z,81.65
2022-09-01T06:55:50.094Z,81.67
2022-09-01T06:56:53.527Z,82.11
2022-09-01T06:58:03.937Z,82.37
2022-09-01T06:59:07.978Z,81.47
2022-09-01T07:00:20.872Z,81.14
2022-09-01T07:01:24.307Z,81.10
2022-09-01T07:02:27.320Z,80.54
2022-09-01T07:04:20.219Z,80.48
2022-09-01T07:07:01.812Z,79.54
2022-09-01T07:10:18.578Z,79.16
2022-09-01T07:13:07.362Z,77.58
2022-09-01T07:14:16.674Z,77.66
2022-09-01T07:16:51.789Z,77.77
2022-09-01T07:17:58.281Z,76.80
2022-09-01T07:19:02.203Z,76.73
2022-09-01T07:21:40.951Z,77.03
2022-09-01T07:23:14.183Z,76.86
2022-09-01T07:24:10.419Z,76.76
2022-09-01T07:25:14.309Z,76.42
2022-09-01T07:26:47.277Z,76.65
2022-09-01T07:27:50.550Z,77.24
2022-09-01T07:29:00.939Z,77.38
2022-09-01T07:30:03.803Z,76.91
2022-09-01T07:32:47.539Z,76.59
2022-09-01T07:33:54.319Z,75.50
2022-09-01T07:34:56.808Z,75.64
2022-09-01T07:42:56.886Z,74.13
2022-09-01T07:42:57.573Z,82.31
2022-09-01T07:43:37.601Z,74.31
2022-09-01T07:45:35.211Z,74.00
2022-09-01T07:46:40.409Z,72.42
2022-09-01T07:47:53.580Z,72.25
2022-09-01T07:49:29.635Z,72.08
2022-09-01T07:51:44.129Z,71.47
2022-09-01T07:52:49.579Z,72.07
2022-09-01T07:53:51.361Z,71.89
2022-09-01T07:54:53.169Z,71.86
2022-09-01T07:55:56.354Z,72.27
2022-09-01T07:56:58.206Z,72.50
2022-09-01T07:57:59.954Z,71.30
2022-09-01T07:59:02.248Z,71.03
2022-09-01T08:00:06.526Z,71.21
2022-09-01T08:01:24.406Z,71.46
2022-09-01T08:02:28.002Z,70.23
2022-09-01T08:03:31.062Z,70.96
2022-09-01T08:04:34.517Z,70.36
2022-09-01T08:05:36.442Z,70.29
2022-09-01T08:06:38.750Z,70.41
2022-09-01T08:07:57.653Z,70.70
2022-09-01T08:09:12.259Z,71.15
2022-09-01T08:10:33.593Z,69.92
2022-09-01T08:11:58.572Z,69.20
2022-09-01T08:12:58.341Z,68.13
2022-09-01T08:14:01.293Z,68.43
2022-09-01T08:15:13.874Z,68.36
2022-09-01T08:16:39.319Z,68.33
2022-09-01T08:17:52.184Z,67.95
2022-09-01T08:18:57.079Z,67.99
2022-09-01T08:20:03.312Z,68.60
2022-09-01T08:21:27.013Z,69.60
2022-09-01T08:22:38.090Z,69.46
2022-09-01T08:23:54.898Z,68.85
2022-09-01T08:24:57.094Z,68.63
2022-09-01T08:25:58.935Z,70.12
2022-09-01T08:27:00.594Z,69.50
2022-09-01T08:28:06.894Z,69.53
2022-09-01T08:29:09.541Z,69.08
2022-09-01T08:30:15.845Z,68.34
2022-09-01T08:31:20.284Z,67.15
2022-09-01T08:32:22.972Z,67.40
2022-09-01T08:33:26.066Z,67.11
2022-09-01T08:34:28.078Z,67.16
2022-09-01T08:35:29.801Z,66.17
2022-09-01T08:36:35.413Z,66.36
2022-09-01T08:37:38.404Z,66.54
2022-09-01T08:38:41.435Z,66.98
2022-09-01T08:39:43.683Z,66.68
2022-09-01T08:40:56.370Z,66.75
2022-09-01T08:42:20.182Z,65.77
2022-09-01T08:43:36.975Z,65.95
2022-09-01T08:44:55.170Z,65.07
2022-09-01T08:46:04.041Z,64.83
2022-09-01T08:47:15.327Z,66.10
2022-09-01T08:49:51.350Z,63.62
2022-09-01T08:51:35.162Z,63.39
2022-09-01T08:52:44.698Z,62.45
2022-09-01T08:53:59.814Z,61.30
2022-09-01T08:55:31.918Z,60.57
2022-09-01T08:56:37.489Z,62.53
2022-09-01T08:57:44.280Z,62.35
2022-09-01T09:01:04.874Z,59.52
2022-09-01T09:02:33.801Z,59.16
2022-09-01T09:03:54.014Z,59.36
2022-09-01T09:04:58.673Z,60.10
2022-09-01T09:06:41.835Z,59.45
2022-09-01T09:08:17.241Z,59.90
2022-09-01T09:09:19.273Z,58.76
2022-09-01T09:11:01.438Z,58.77
2022-09-01T09:12:10.831Z,57.55
2022-09-01T09:13:40.835Z,56.63
2022-09-01T09:15:06.969Z,56.81
2022-09-01T09:16:26.162Z,55.57
2022-09-01T09:17:37.298Z,54.29
2022-09-01T09:18:55.861Z,54.10
2022-09-01T09:19:58.052Z,52.79
2022-09-01T09:21:27.677Z,53.72
2022-09-01T09:22:29.398Z,55.18
2022-09-01T09:23:39.397Z,55.45
2022-09-01T09:25:08.425Z,56.47
2022-09-01T09:26:10.105Z,57.76
2022-09-01T09:27:30.740Z,58.25
2022-09-01T09:28:32.466Z,58.05
2022-09-01T09:29:34.425Z,57.91
2022-09-01T09:30:38.389Z,58.99
2022-09-01T09:31:49.924Z,57.51
2022-09-01T09:34:39.718Z,56.62
2022-09-01T09:35:44.246Z,55.03
2022-09-01T09:36:53.893Z,55.83
2022-09-01T09:38:29.054Z,57.18
2022-09-01T09:39:31.005Z,55.71
2022-09-01T09:40:47.892Z,54.53
2022-09-01T09:42:12.082Z,54.88
2022-09-01T09:43:16.145Z,54.89
2022-09-01T09:44:29.413Z,53.48
2022-09-01T09:45:41.614Z,54.15
2022-09-01T09:46:47.473Z,54.72
2022-09-01T09:47:49.599Z,54.22
2022-09-01T09:49:15.381Z,54.28
2022-09-01T09:50:17.427Z,54.71
2022-09-01T09:51:22.774Z,54.66
2022-09-01T09:52:24.509Z,53.65
2022-09-01T09:53:29.955Z,53.19
2022-09-01T09:54:33.852Z,53.50
2022-09-01T09:55:35.779Z,54.35
2022-09-01T09:56:37.638Z,55.56
2022-09-01T09:57:41.768Z,55.17
2022-09-01T09:58:46.693Z,56.14
2022-09-01T10:00:00.808Z,56.17
2022-09-01T10:01:05.889Z,56.16
2022-09-01T10:02:33.793Z,56.22
2022-09-01T10:03:45.047Z,56.49
2022-09-01T10:04:46.814Z,55.08
2022-09-01T10:05:52.828Z,54.21
2022-09-01T10:06:55.578Z,54.35
2022-09-01T10:07:58.403Z,54.43
2022-09-01T10:09:08.261Z,53.68
2022-09-01T10:10:40.402Z,54.20
2022-09-01T10:11:48.277Z,55.56
2022-09-01T10:12:56.677Z,53.77
2022-09-01T10:13:58.915Z,53.77
2022-09-01T10:15:07.100Z,54.21
2022-09-01T10:16:26.881Z,53.72
2022-09-01T10:17:35.933Z,54.51
2022-09-01T10:18:41.798Z,54.38
2022-09-01T10:19:54.207Z,54.61
2022-09-01T10:21:04.234Z,54.69
2022-09-01T10:22:08.329Z,53.96
2022-09-01T10:23:15.251Z,52.09
2022-09-01T10:24:32.045Z,52.05
2022-09-01T10:25:35.666Z,51.04
2022-09-01T10:26:41.250Z,51.53
2022-09-01T10:27:51.160Z,51.44
2022-09-01T10:29:01.803Z,50.28
2022-09-01T10:30:19.809Z,48.15
2022-09-01T10:31:22.847Z,49.15
2022-09-01T10:32:50.800Z,49.47
2022-09-01T10:33:58.641Z,49.34
2022-09-01T10:35:03.177Z,50.09
2022-09-01T10:36:07.833Z,48.83
2022-09-01T10:37:15.890Z,49.49
2022-09-01T10:38:23.198Z,48.29
2022-09-01T10:39:30.514Z,49.01
2022-09-01T10:40:49.648Z,48.68
2022-09-01T10:41:59.733Z,48.31
2022-09-01T10:43:26.157Z,49.61
2022-09-01T10:44:58.205Z,49.49
2022-09-01T10:46:06.048Z,48.01
2022-09-01T10:47:14.696Z,48.28
2022-09-01T10:48:30.487Z,49.06
2022-09-01T10:49:32.569Z,49.43
2022-09-01T10:50:35.997Z,49.76
2022-09-01T10:51:50.466Z,50.53
2022-09-01T10:52:57.121Z,51.43
2022-09-01T10:54:03.540Z,51.73
2022-09-01T10:55:23.993Z,51.69
2022-09-01T10:56:44.378Z,51.92
2022-09-01T10:59:29.804Z,52.45
2022-09-01T10:59:43.301Z,53.92
2022-09-01T11:01:10.680Z,54.82
2022-09-01T11:02:28.123Z,55.50
2022-09-01T11:03:54.355Z,56.21
2022-09-01T11:04:58.218Z,56.59
2022-09-01T11:06:12.305Z,57.11
2022-09-01T11:07:44.372Z,57.16
2022-09-01T11:09:03.682Z,57.58
2022-09-01T11:10:37.021Z,57.39
2022-09-01T11:11:51.892Z,57.75
2022-09-01T11:13:10.335Z,58.17
2022-09-01T11:14:23.639Z,58.53
2022-09-01T11:15:39.131Z,58.66
2022-09-01T11:16:46.705Z,58.66
2022-09-01T11:17:52.135Z,58.80
2022-09-01T11:18:55.250Z,59.39
2022-09-01T11:20:20.432Z,59.92
2022-09-01T11:21:33.185Z,59.53
2022-09-01T11:22:46.577Z,60.02
2022-09-01T11:23:48.301Z,59.99
2022-09-01T11:25:11.848Z,60.10
2022-09-01T11:26:32.525Z,60.10
2022-09-01T11:27:49.156Z,61.05
2022-09-01T11:28:51.158Z,61.17
2022-09-01T11:30:09.128Z,60.86
2022-09-01T11:31:20.630Z,60.39
2022-09-01T11:32:27.994Z,60.31
2022-09-01T11:33:29.560Z,60.15
2022-09-01T11:34:31.816Z,60.37
2022-09-01T11:35:33.716Z,60.53
2022-09-01T11:36:48.382Z,60.76
2022-09-01T11:37:55.255Z,59.49
2022-09-01T11:39:17.570Z,58.63
2022-09-01T11:40:29.628Z,57.36
2022-09-01T11:41:40.203Z,57.46
2022-09-01T11:42:46.807Z,57.24
2022-09-01T11:43:54.220Z,57.99
2022-09-01T11:45:04.612Z,57.51
2022-09-01T11:46:25.063Z,56.66
2022-09-01T11:47:55.228Z,55.00
2022-09-01T11:48:59.746Z,54.94
2022-09-01T11:50:34.565Z,54.22
2022-09-01T11:51:47.885Z,54.12
2022-09-01T11:52:57.064Z,54.80
2022-09-01T11:54:00.678Z,53.32
2022-09-01T11:55:04.722Z,53.62
2022-09-01T11:56:20.112Z,53.58
2022-09-01T11:57:31.755Z,52.86
2022-09-01T11:58:39.179Z,53.20
2022-09-01T11:59:43.866Z,53.22
2022-09-01T12:00:45.540Z,53.40
2022-09-01T12:01:47.287Z,53.71
2022-09-01T12:02:52.173Z,53.29
2022-09-01T12:03:54.303Z,53.95
2022-09-01T12:04:57.148Z,54.09
2022-09-01T12:06:04.008Z,53.85
2022-09-01T12:07:11.642Z,53.88
2022-09-01T12:08:18.331Z,54.51
2022-09-01T12:09:44.034Z,54.26
2022-09-01T12:10:47.066Z,55.16
2022-09-01T12:11:49.026Z,53.79
2022-09-01T12:13:02.523Z,53.30
2022-09-01T12:14:11.444Z,53.01
2022-09-01T12:15:25.936Z,52.45
2022-09-01T12:16:29.965Z,51.69
2022-09-01T12:17:31.660Z,51.79
2022-09-01T12:18:39.664Z,52.83
2022-09-01T12:19:41.293Z,52.72
2022-09-01T12:20:43.209Z,53.66
2022-09-01T12:21:59.845Z,52.98
2022-09-01T12:23:03.588Z,53.65
2022-09-01T12:24:21.799Z,52.47
2022-09-01T12:25:29.209Z,49.86
2022-09-01T12:26:31.001Z,48.99
2022-09-01T12:27:33.634Z,49.64
2022-09-01T12:28:36.181Z,50.71
2022-09-01T12:29:38.875Z,51.09
2022-09-01T12:30:44.703Z,49.60
2022-09-01T12:31:52.471Z,47.19
2022-09-01T12:34:32.953Z,45.93
2022-09-01T12:35:34.595Z,46.07
2022-09-01T12:36:37.195Z,44.00
2022-09-01T12:37:38.945Z,43.93
2022-09-01T12:38:40.680Z,44.14
2022-09-01T12:39:49.007Z,43.27
2022-09-01T12:40:54.453Z,44.09
2022-09-01T12:42:07.343Z,44.51
2022-09-01T12:43:09.020Z,44.19
2022-09-01T12:44:31.433Z,43.84
2022-09-01T12:45:45.678Z,43.30
2022-09-01T12:46:47.478Z,42.28
2022-09-01T12:47:50.642Z,41.72
2022-09-01T12:48:52.634Z,41.81
2022-09-01T12:49:55.686Z,42.09
2022-09-01T12:51:04.745Z,40.52
2022-09-01T12:52:28.168Z,40.14
2022-09-01T12:53:36.741Z,39.20
2022-09-01T12:54:39.714Z,39.48
2022-09-01T12:56:17.070Z,39.69
2022-09-01T12:57:35.453Z,40.34
2022-09-01T12:58:37.209Z,41.71
2022-09-01T12:59:38.898Z,42.23
2022-09-01T13:00:58.440Z,43.02
2022-09-01T13:02:26.994Z,43.49
2022-09-01T13:03:30.708Z,44.19
2022-09-01T13:04:34.388Z,45.03
2022-09-01T13:06:03.796Z,45.61
2022-09-01T13:07:07.693Z,46.89
2022-09-01T13:08:14.676Z,47.54
2022-09-01T13:09:16.638Z,48.61
2022-09-01T13:10:18.674Z,49.55
2022-09-01T13:11:20.750Z,49.57
2022-09-01T13:12:22.412Z,49.72
2022-09-01T13:13:26.866Z,50.12
2022-09-01T13:14:29.870Z,51.03
2022-09-01T13:15:32.638Z,50.40
2022-09-01T13:16:35.623Z,50.89
2022-09-01T13:17:38.401Z,51.71
2022-09-01T13:20:05.742Z,51.57
2022-09-01T13:21:07.942Z,52.21
2022-09-01T13:22:10.459Z,51.96
2022-09-01T13:23:12.830Z,51.85
2022-09-01T13:24:14.751Z,52.46
2022-09-01T13:25:20.267Z,50.57
2022-09-01T13:26:22.568Z,48.93
2022-09-01T13:27:24.381Z,47.95
2022-09-01T13:28:27.011Z,47.32
2022-09-01T13:29:28.750Z,46.36
2022-09-01T13:30:30.470Z,45.82
2022-09-01T13:31:32.659Z,44.95
2022-09-01T13:32:34.944Z,45.25
2022-09-01T13:34:09.300Z,43.93
2022-09-01T13:34:58.644Z,42.49
2022-09-01T13:36:42.816Z,41.81
2022-09-01T13:37:24.379Z,42.72
2022-09-01T13:38:26.168Z,41.80
2022-09-01T13:39:27.845Z,42.07
2022-09-01T13:40:31.065Z,42.08
2022-09-01T13:41:32.813Z,40.98
2022-09-01T13:42:34.811Z,40.55
2022-09-01T13:43:37.469Z,39.52
2022-09-01T13:44:42.545Z,39.06
2022-09-01T13:45:45.233Z,39.48
2022-09-01T13:48:17.449Z,38.87
2022-09-01T13:52:04.045Z,38.80
2022-09-01T13:53:06.662Z,38.13
2022-09-01T13:54:08.382Z,38.33
2022-09-01T13:55:14.197Z,38.91
2022-09-01T13:56:15.854Z,39.71
2022-09-01T13:57:17.854Z,39.86
2022-09-01T13:58:20.383Z,40.41
2022-09-01T13:59:22.589Z,40.12
2022-09-01T14:00:29.318Z,40.07
2022-09-01T14:01:31.028Z,39.67
2022-09-01T14:02:32.696Z,39.97
2022-09-01T14:03:34.445Z,40.03
2022-09-01T14:04:36.315Z,39.43
2022-09-01T14:05:42.291Z,39.45
2022-09-01T14:06:44.838Z,39.35
2022-09-01T14:07:48.838Z,39.48
2022-09-01T14:08:50.529Z,39.65
2022-09-01T14:09:52.177Z,40.68
2022-09-01T14:10:54.354Z,41.33
2022-09-01T14:11:57.055Z,41.53
2022-09-01T14:13:00.342Z,42.22
2022-09-01T14:14:02.517Z,42.82
2022-09-01T14:15:16.621Z,42.91
2022-09-01T14:16:19.720Z,43.88
2022-09-01T14:17:21.472Z,44.76
2022-09-01T14:18:23.232Z,45.43
2022-09-01T14:19:24.911Z,46.47
2022-09-01T14:20:36.072Z,47.61
2022-09-01T14:21:39.424Z,48.24
2022-09-01T14:22:41.594Z,48.95
2022-09-01T14:23:45.796Z,49.13
2022-09-01T14:24:47.859Z,49.66
2022-09-01T14:25:52.654Z,50.38
2022-09-01T14:26:54.319Z,51.17
2022-09-01T14:27:57.178Z,51.55
2022-09-01T14:29:02.543Z,52.35
2022-09-01T14:30:09.107Z,52.59
2022-09-01T14:31:12.481Z,53.47
2022-09-01T14:32:14.144Z,53.55
2022-09-01T14:33:16.931Z,53.79
2022-09-01T14:34:18.982Z,54.57
2022-09-01T14:35:24.813Z,55.01
2022-09-01T14:36:27.020Z,55.33
2022-09-01T14:37:28.794Z,56.00
2022-09-01T14:38:32.131Z,56.27
2022-09-01T14:39:34.137Z,56.68
2022-09-01T14:40:38.074Z,56.98
2022-09-01T14:41:39.824Z,57.54
2022-09-01T14:42:48.990Z,57.78
2022-09-01T14:43:59.749Z,57.57
2022-09-01T14:45:05.028Z,58.17
2022-09-01T14:46:10.811Z,58.34
2022-09-01T14:47:19.137Z,58.13
2022-09-01T14:48:21.974Z,59.00
2022-09-01T14:49:24.301Z,59.04
2022-09-01T14:50:29.039Z,58.83
2022-09-01T14:52:56.350Z,58.38
2022-09-01T14:53:58.190Z,58.00
2022-09-01T14:54:59.919Z,57.84